Manistique, MI

7:53 AM EDT on July 28, 2017 (GMT -0400)
Schoolcraft County

Weather History for KISQ - December, 2012

Change the Weather History Date:

Thursday, December 13, 2012

  Actual Average Record
Temperature  
Mean Temperature 34 °F -  
Max Temperature 41 °F 31 °F 50 °F (2015)
Min Temperature 28 °F 15 °F -8 °F (1985)
Degree Days  
Heating Degree Days 30    
Moisture  
Dew Point 28 °F    
Average Humidity 71    
Maximum Humidity 93    
Minimum Humidity 61    
Precipitation  
Precipitation 0.00 in - - ()
Sea Level Pressure  
Sea Level Pressure 30.04 in    
Wind  
Wind Speed 11 mph (SW)    
Max Wind Speed 17 mph    
Max Gust Speed 26 mph    
Visibility 10 miles    
Events      
Averages and records for this station are not official NWS values.
T = Trace of Precipitation, MM = Missing Value Source: NWS Daily Summary

Daily Weather History Graph

Daily Weather History Graph

Search for Another Location

Airport or City:

Trip Planner

Search our weather history database for the weather conditions in past years. The results will help you decide how hot, cold, wet, or windy it might be!

Date:

Astronomy

Dec. 13, 2012 Rise Set
Actual Time 8:18 AM EST 4:59 PM EST
Civil Twilight 7:44 AM EST 5:34 PM EST
Nautical Twilight 7:06 AM EST 6:12 PM EST
Astronomical Twilight 6:29 AM EST 6:48 PM EST
Moon 8:25 AM EST (12/13) 5:42 PM EST (12/13)
Length of Visible Light 9h 50m
Length of Day
8h 41m
New Moon, 0% of the Moon is Illuminated
Dec 13
New Moon
Dec 20
First Quarter
Dec 28
Full
Jan 4
Last Quarter
Jan 11
New

Hourly Weather History & Observations

Time (EST) Temp. Windchill Dew Point Humidity Pressure Visibility Wind Dir Wind Speed Gust Speed Precip Events Conditions
12:15 AM 41.0 °F 33.1 °F 33.8 °F 76% 30.08 in 10.0 mi SSW 15.0 mph 24.2 mph N/A   Overcast
12:34 AM 41.0 °F 32.5 °F 33.8 °F 76% 30.09 in 10.0 mi SW 17.3 mph 25.3 mph N/A   Overcast
12:55 AM 41.0 °F 33.1 °F 32.0 °F 70% 30.09 in 10.0 mi SW 15.0 mph 21.9 mph N/A   Overcast
1:14 AM 41.0 °F 32.5 °F 30.2 °F 65% 30.09 in 10.0 mi SW 17.3 mph 26.5 mph N/A   Overcast
1:35 AM 41.0 °F 33.1 °F 30.2 °F 65% 30.09 in 10.0 mi SW 15.0 mph 23.0 mph N/A   Overcast
1:55 AM 39.2 °F 32.0 °F 30.2 °F 70% 30.10 in 10.0 mi SW 11.5 mph 26.5 mph N/A   Overcast
2:14 AM 39.2 °F 32.0 °F 28.4 °F 65% 30.09 in 10.0 mi SW 11.5 mph 19.6 mph N/A   Overcast
2:35 AM 39.2 °F 32.5 °F 30.2 °F 70% 30.09 in 10.0 mi SW 10.4 mph 18.4 mph N/A   Overcast
2:54 AM 39.2 °F 32.5 °F 30.2 °F 70% 30.09 in 10.0 mi SW 10.4 mph 20.7 mph N/A   Mostly Cloudy
3:15 AM 39.2 °F 31.2 °F 30.2 °F 70% 30.08 in 10.0 mi SSW 13.8 mph 20.7 mph N/A   Overcast
3:34 AM 39.2 °F 30.8 °F 30.2 °F 70% 30.08 in 10.0 mi SSW 15.0 mph 20.7 mph N/A   Scattered Clouds
3:54 AM 39.2 °F 30.8 °F 30.2 °F 70% 30.07 in 10.0 mi SSW 15.0 mph 19.6 mph N/A   Mostly Cloudy
4:15 AM 39.2 °F 31.2 °F 30.2 °F 70% 30.07 in 10.0 mi SSW 13.8 mph 20.7 mph N/A   Scattered Clouds
4:34 AM 39.2 °F 32.0 °F 30.2 °F 70% 30.06 in 10.0 mi SSW 11.5 mph 21.9 mph N/A   Mostly Cloudy
4:55 AM 39.2 °F 30.8 °F 30.2 °F 70% 30.05 in 10.0 mi SSW 15.0 mph 25.3 mph N/A   Mostly Cloudy
5:14 AM 39.2 °F 31.6 °F 30.2 °F 70% 30.05 in 10.0 mi SW 12.7 mph 19.6 mph N/A   Overcast
5:35 AM 39.2 °F 32.0 °F 30.2 °F 70% 30.05 in 10.0 mi SW 11.5 mph 18.4 mph N/A   Overcast
5:55 AM 39.2 °F 31.6 °F 30.2 °F 70% 30.05 in 10.0 mi SW 12.7 mph 19.6 mph N/A   Mostly Cloudy
6:14 AM 37.4 °F 29.8 °F 30.2 °F 75% 30.04 in 10.0 mi SSW 11.5 mph 18.4 mph N/A   Mostly Cloudy
6:35 AM 37.4 °F 29.3 °F 28.4 °F 70% 30.05 in 10.0 mi SW 12.7 mph 18.4 mph N/A   Mostly Cloudy
6:54 AM 37.4 °F 30.3 °F 28.4 °F 70% 30.05 in 10.0 mi SW 10.4 mph 18.4 mph N/A   Mostly Cloudy
7:15 AM 37.4 °F 31.4 °F 28.4 °F 70% 30.05 in 10.0 mi SW 8.1 mph - N/A   Mostly Cloudy
7:34 AM 37.4 °F 30.8 °F 28.4 °F 70% 30.05 in 10.0 mi SSW 9.2 mph - N/A   Overcast
7:55 AM 37.4 °F 31.4 °F 28.4 °F 70% 30.05 in 10.0 mi SSW 8.1 mph - N/A   Overcast
8:15 AM 37.4 °F 30.3 °F 28.4 °F 70% 30.05 in 10.0 mi SSW 10.4 mph - N/A   Overcast
8:34 AM 37.4 °F 30.3 °F 28.4 °F 70% 30.05 in 10.0 mi SW 10.4 mph 16.1 mph N/A   Overcast
8:55 AM 37.4 °F 29.8 °F 28.4 °F 70% 30.05 in 10.0 mi SSW 11.5 mph 16.1 mph N/A   Overcast
9:14 AM 37.4 °F 30.8 °F 28.4 °F 70% 30.05 in 10.0 mi SSW 9.2 mph - N/A   Mostly Cloudy
9:34 AM 37.4 °F 30.8 °F 28.4 °F 70% 30.04 in 10.0 mi SSW 9.2 mph - N/A   Mostly Cloudy
9:54 AM 37.4 °F 30.3 °F 28.4 °F 70% 30.04 in 10.0 mi SSW 10.4 mph - N/A   Overcast
10:15 AM 37.4 °F 30.8 °F 28.4 °F 70% 30.05 in 10.0 mi SSW 9.2 mph - N/A   Overcast
10:35 AM 39.2 °F 32.5 °F 28.4 °F 65% 30.05 in 10.0 mi SSW 10.4 mph - N/A   Scattered Clouds
10:54 AM 39.2 °F 33.0 °F 28.4 °F 65% 30.05 in 10.0 mi SW 9.2 mph 18.4 mph N/A   Scattered Clouds
11:15 AM 39.2 °F 33.6 °F 28.4 °F 65% 30.04 in 10.0 mi SW 8.1 mph - N/A   Mostly Cloudy
11:34 AM 39.2 °F 33.0 °F 28.4 °F 65% 30.04 in 10.0 mi SW 9.2 mph - N/A   Scattered Clouds
11:55 AM 39.2 °F 33.0 °F 28.4 °F 65% 30.04 in 10.0 mi SW 9.2 mph - N/A   Scattered Clouds
12:14 PM 39.2 °F 33.6 °F 28.4 °F 65% 30.03 in 10.0 mi SW 8.1 mph - N/A   Scattered Clouds
12:34 PM 39.2 °F 32.5 °F 26.6 °F 61% 30.02 in 10.0 mi SW 10.4 mph 16.1 mph N/A   Scattered Clouds
12:55 PM 39.2 °F 33.6 °F 28.4 °F 65% 30.01 in 10.0 mi SW 8.1 mph - N/A   Mostly Cloudy
1:14 PM 39.2 °F 33.0 °F 28.4 °F 65% 30.00 in 10.0 mi SSW 9.2 mph - N/A   Scattered Clouds
1:35 PM 39.2 °F 33.6 °F 28.4 °F 65% 30.00 in 10.0 mi SW 8.1 mph - N/A   Scattered Clouds
1:55 PM 39.2 °F 35.0 °F 28.4 °F 65% 29.99 in 10.0 mi SW 5.8 mph - N/A   Mostly Cloudy
2:14 PM 39.2 °F 32.5 °F 28.4 °F 65% 29.98 in 10.0 mi SSW 10.4 mph - N/A   Overcast
2:35 PM 39.2 °F 31.6 °F 28.4 °F 65% 29.98 in 10.0 mi SSW 12.7 mph 20.7 mph N/A   Scattered Clouds
2:54 PM 39.2 °F 32.0 °F 26.6 °F 61% 29.98 in 10.0 mi SW 11.5 mph 19.6 mph N/A   Clear
3:15 PM 37.4 °F 29.8 °F 26.6 °F 65% 29.98 in 10.0 mi SW 11.5 mph 17.3 mph N/A   Clear
3:35 PM 37.4 °F 34.9 °F 28.4 °F 70% 29.99 in 10.0 mi SW 3.5 mph - N/A   Clear
3:54 PM 37.4 °F 32.1 °F 26.6 °F 65% 29.98 in 10.0 mi WSW 6.9 mph - N/A   Clear
4:15 PM 37.4 °F 33.8 °F 26.6 °F 65% 29.99 in 10.0 mi SW 4.6 mph - N/A   Clear
4:34 PM 37.4 °F 32.8 °F 26.6 °F 65% 29.99 in 10.0 mi WSW 5.8 mph - N/A   Clear
4:55 PM 35.6 °F 31.7 °F 26.6 °F 70% 29.99 in 10.0 mi WSW 4.6 mph - N/A   Clear
5:34 PM 35.6 °F 31.7 °F 26.6 °F 70% 30.00 in 10.0 mi WSW 4.6 mph - N/A   Clear
8:15 PM 30.2 °F 26.7 °F 24.8 °F 80% 30.03 in 10.0 mi West 3.5 mph - N/A   Clear
8:35 PM 28.4 °F - 24.8 °F 86% 30.04 in 10.0 mi Calm Calm - N/A   Clear
9:15 PM 28.4 °F 24.6 °F 24.8 °F 86% 30.04 in 10.0 mi West 3.5 mph - N/A   Clear
9:34 PM 28.4 °F 22.2 °F 24.8 °F 86% 30.04 in 10.0 mi WNW 5.8 mph - N/A   Mostly Cloudy
9:55 PM 30.2 °F 25.4 °F 26.6 °F 86% 30.04 in 10.0 mi WNW 4.6 mph - N/A   Overcast
10:15 PM 32.0 °F 25.6 °F 26.6 °F 80% 30.04 in 10.0 mi NNW 6.9 mph - N/A   Overcast
10:34 PM 32.0 °F 27.5 °F 26.6 °F 80% 30.05 in 10.0 mi NW 4.6 mph - N/A   Overcast
10:55 PM 32.0 °F 28.7 °F 26.6 °F 80% 30.05 in 10.0 mi NNW 3.5 mph - N/A   Overcast
11:14 PM 30.2 °F 25.4 °F 26.6 °F 86% 30.07 in 10.0 mi NNW 4.6 mph - N/A   Overcast
11:35 PM 30.2 °F 26.7 °F 26.6 °F 86% 30.07 in 10.0 mi NNW 3.5 mph - N/A   Mostly Cloudy
11:55 PM 30.2 °F 25.4 °F 28.4 °F 93% 30.08 in 10.0 mi NNW 4.6 mph - N/A   Overcast